Weather History for KHYW - November, 2012

Change the Weather History Date:

Sunday, November 18, 2012

  Actual Average Record
Temperature  
Mean Temperature 52 °F -  
Max Temperature 53 °F 68 °F 82 °F (2013)
Min Temperature 50 °F 41 °F 26 °F (2014)
Degree Days  
Heating Degree Days 14    
Growing Degree Days 2 (Base 50)    
Moisture  
Dew Point 49 °F    
Average Humidity 92    
Maximum Humidity 100    
Minimum Humidity 76    
Precipitation  
Precipitation 0.39 in - - ()
Sea Level Pressure  
Sea Level Pressure 30.26 in    
Wind  
Wind Speed 11 mph (North)    
Max Wind Speed 16 mph    
Max Gust Speed 26 mph    
Visibility 7 miles    
Events Rain    
Averages and records for this station are not official NWS values.
T = Trace of Precipitation, MM = Missing Value Source: NWS Daily Summary

Daily Weather History Graph

Daily Weather History Graph

Search for Another Location

Airport or City:

Trip Planner

Search our weather history database for the weather conditions in past years. The results will help you decide how hot, cold, wet, or windy it might be!

Date:

Astronomy

Nov. 18, 2012 Rise Set
Actual Time 6:51 AM EST 5:11 PM EST
Civil Twilight 6:25 AM EST 5:38 PM EST
Nautical Twilight 5:54 AM EST 6:08 PM EST
Astronomical Twilight 5:25 AM EST 6:38 PM EST
Moon 11:20 AM EST (11/18) 10:24 PM EST (11/18)
Length of Visible Light 11h 12m
Length of Day
10h 19m
Waxing Crescent, 30% of the Moon is Illuminated
Nov 18
Waxing Crescent
Nov 20
First Quarter
Nov 28
Full
Dec 6
Last Quarter
Dec 13
New

Hourly Weather History & Observations

Time (EST) Temp. Dew Point Humidity Pressure Visibility Wind Dir Wind Speed Gust Speed Precip Events Conditions
12:15 AM 51.8 °F 44.6 °F 76% 30.34 in 7.0 mi NNE 9.2 mph - N/A   Overcast
12:35 AM 51.8 °F 44.6 °F 76% 30.33 in 7.0 mi North 8.1 mph 18.4 mph N/A   Overcast
12:55 AM 50.0 °F 44.6 °F 82% 30.31 in 7.0 mi NNE 11.5 mph 18.4 mph N/A   Overcast
1:15 AM 50.0 °F 44.6 °F 82% 30.31 in 7.0 mi NNE 13.8 mph 19.6 mph N/A   Mostly Cloudy
1:35 AM 50.0 °F 44.6 °F 82% 30.30 in 7.0 mi NNE 13.8 mph - N/A   Clear
1:55 AM 50.0 °F 44.6 °F 82% 30.30 in 7.0 mi North 10.4 mph 16.1 mph N/A   Mostly Cloudy
2:15 AM 50.0 °F 44.6 °F 82% 30.29 in 7.0 mi North 6.9 mph 16.1 mph N/A   Mostly Cloudy
2:35 AM 50.0 °F 44.6 °F 82% 30.30 in 7.0 mi North 9.2 mph 17.3 mph N/A   Mostly Cloudy
2:55 AM 50.0 °F 44.6 °F 82% 30.30 in 7.0 mi North 10.4 mph 17.3 mph N/A   Mostly Cloudy
3:15 AM 50.0 °F 44.6 °F 82% 30.30 in 7.0 mi North 9.2 mph 17.3 mph N/A   Scattered Clouds
3:35 AM 50.0 °F 44.6 °F 82% 30.30 in 7.0 mi North 9.2 mph 18.4 mph N/A   Mostly Cloudy
3:55 AM 50.0 °F 44.6 °F 82% 30.29 in 7.0 mi North 6.9 mph - N/A   Overcast
4:15 AM 50.0 °F 44.6 °F 82% 30.29 in 7.0 mi North 10.4 mph 16.1 mph N/A   Overcast
4:35 AM 50.0 °F 44.6 °F 82% 30.30 in 10.0 mi North 9.2 mph 16.1 mph N/A   Overcast
4:55 AM 50.0 °F 44.6 °F 82% 30.28 in 7.0 mi North 8.1 mph - N/A   Overcast
5:15 AM 50.0 °F 44.6 °F 82% 30.28 in 7.0 mi North 8.1 mph - N/A   Mostly Cloudy
5:35 AM 50.0 °F 44.6 °F 82% 30.29 in 7.0 mi North 6.9 mph 17.3 mph N/A   Overcast
5:55 AM 50.0 °F 44.6 °F 82% 30.29 in 7.0 mi North 6.9 mph 16.1 mph N/A   Overcast
6:15 AM 50.0 °F 44.6 °F 82% 30.30 in 7.0 mi North 6.9 mph - N/A   Overcast
6:35 AM 50.0 °F 44.6 °F 82% 30.30 in 10.0 mi North 6.9 mph - N/A   Light Drizzle
6:55 AM 50.0 °F 44.6 °F 82% 30.30 in 10.0 mi North 9.2 mph - N/A   Drizzle
7:15 AM 50.0 °F 46.4 °F 87% 30.30 in 10.0 mi North 6.9 mph - N/A Rain Rain
7:35 AM 50.0 °F 46.4 °F 87% 30.30 in 10.0 mi North 8.1 mph - N/A   Overcast
7:55 AM 50.0 °F 46.4 °F 87% 30.30 in 7.0 mi North 8.1 mph - N/A   Overcast
8:15 AM 50.0 °F 46.4 °F 87% 30.29 in 5.0 mi North 9.2 mph - N/A   Overcast
8:35 AM 51.8 °F 46.4 °F 82% 30.30 in 5.0 mi North 9.2 mph 16.1 mph N/A   Overcast
8:55 AM 51.8 °F 48.2 °F 88% 30.30 in 4.0 mi North 9.2 mph - N/A   Overcast
9:15 AM 51.8 °F 48.2 °F 88% 30.30 in 7.0 mi North 9.2 mph 18.4 mph N/A Rain Light Rain
9:35 AM 50.0 °F 50.0 °F 100% 30.29 in 5.0 mi North 9.2 mph 17.3 mph 0.03 in Rain Heavy Rain
9:55 AM 50.0 °F 50.0 °F 100% 30.29 in 5.0 mi North 9.2 mph - 0.08 in Rain Rain
10:15 AM 50.0 °F 50.0 °F 100% 30.29 in 4.0 mi North 9.2 mph - 0.06 in Rain Rain
10:35 AM 50.0 °F 50.0 °F 100% 30.29 in 5.0 mi North 15.0 mph 19.6 mph 0.11 in Rain Heavy Rain
10:55 AM 51.8 °F 51.8 °F 100% 30.28 in 5.0 mi North 12.7 mph 25.3 mph 0.16 in Rain Rain
11:15 AM 51.8 °F 51.8 °F 100% 30.26 in 4.0 mi North 12.7 mph 20.7 mph 0.05 in Rain Rain
11:35 AM 51.8 °F 51.8 °F 100% 30.26 in 5.0 mi NNE 13.8 mph 21.9 mph 0.07 in Rain Rain
11:55 AM 51.8 °F 51.8 °F 100% 30.25 in 7.0 mi North 13.8 mph 19.6 mph 0.10 in Rain Rain
12:15 PM 51.8 °F 51.8 °F 100% 30.23 in 7.0 mi North 13.8 mph 24.2 mph 0.01 in Rain Light Rain
12:35 PM 51.8 °F 51.8 °F 100% 30.23 in 10.0 mi North 13.8 mph 20.7 mph 0.02 in Rain Light Rain
12:55 PM 51.8 °F 51.8 °F 100% 30.22 in 10.0 mi NNE 15.0 mph 26.5 mph 0.02 in Rain Rain
1:15 PM 51.8 °F 51.8 °F 100% 30.22 in 7.0 mi North 16.1 mph 25.3 mph 0.02 in Rain Rain
1:35 PM 51.8 °F 51.8 °F 100% 30.22 in 10.0 mi NNE 11.5 mph 25.3 mph 0.03 in Rain Light Rain
1:55 PM 51.8 °F 51.8 °F 100% 30.21 in 7.0 mi North 15.0 mph 19.6 mph 0.03 in Rain Light Rain
2:15 PM 51.8 °F 51.8 °F 100% 30.21 in 10.0 mi North 10.4 mph 21.9 mph N/A   Light Drizzle
2:35 PM 51.8 °F 51.8 °F 100% 30.21 in 10.0 mi NNE 12.7 mph 20.7 mph N/A Rain Light Rain
2:55 PM 51.8 °F 51.8 °F 100% 30.21 in 10.0 mi NNE 12.7 mph 17.3 mph N/A   Light Drizzle
3:15 PM 51.8 °F 51.8 °F 100% 30.21 in 7.0 mi North 12.7 mph 19.6 mph N/A Rain Light Rain
3:35 PM 53.6 °F 53.6 °F 100% 30.21 in 5.0 mi North 11.5 mph 21.9 mph N/A   Overcast
3:55 PM 53.6 °F 53.6 °F 100% 30.20 in 7.0 mi North 13.8 mph 23.0 mph N/A   Overcast
4:15 PM 53.6 °F 53.6 °F 100% 30.20 in 4.0 mi North 13.8 mph 26.5 mph N/A Rain Light Rain
4:35 PM 53.6 °F 53.6 °F 100% 30.21 in 7.0 mi North 11.5 mph 20.7 mph N/A   Overcast
4:55 PM 53.6 °F 51.8 °F 94% 30.21 in 7.0 mi North 11.5 mph 26.5 mph N/A Rain Light Rain
5:15 PM 53.6 °F 53.6 °F 100% 30.20 in 7.0 mi North 13.8 mph 19.6 mph N/A   Overcast
5:35 PM 53.6 °F 53.6 °F 100% 30.21 in 7.0 mi North 10.4 mph 20.7 mph N/A   Overcast
5:55 PM 53.6 °F 53.6 °F 100% 30.21 in 7.0 mi NNE 13.8 mph 19.6 mph N/A   Overcast
6:15 PM 53.6 °F 51.8 °F 94% 30.22 in 7.0 mi NNE 11.5 mph 24.2 mph N/A   Overcast
6:35 PM 53.6 °F 53.6 °F 100% 30.22 in 7.0 mi North 11.5 mph 23.0 mph N/A   Overcast
6:55 PM 53.6 °F 51.8 °F 94% 30.22 in 7.0 mi North 13.8 mph 23.0 mph N/A   Overcast
7:15 PM 53.6 °F 51.8 °F 94% 30.22 in 7.0 mi North 13.8 mph 24.2 mph N/A   Overcast
7:35 PM 53.6 °F 51.8 °F 94% 30.22 in 7.0 mi North 11.5 mph 21.9 mph N/A   Overcast
7:55 PM 53.6 °F 51.8 °F 94% 30.21 in 7.0 mi North 15.0 mph 23.0 mph N/A   Overcast
8:15 PM 53.6 °F 51.8 °F 94% 30.22 in 7.0 mi North 12.7 mph 21.9 mph N/A   Overcast
8:35 PM 53.6 °F 51.8 °F 94% 30.22 in 7.0 mi North 15.0 mph 19.6 mph N/A   Overcast
8:55 PM 53.6 °F 53.6 °F 100% 30.22 in 10.0 mi North 11.5 mph 20.7 mph N/A   Overcast
9:15 PM 53.6 °F 53.6 °F 100% 30.22 in 7.0 mi NNE 15.0 mph 20.7 mph N/A   Overcast
9:35 PM 53.6 °F 53.6 °F 100% 30.22 in 7.0 mi North 9.2 mph 20.7 mph N/A   Overcast
9:55 PM 53.6 °F 53.6 °F 100% 30.22 in 7.0 mi North 12.7 mph 18.4 mph N/A   Overcast
10:15 PM 53.6 °F 53.6 °F 100% 30.22 in 7.0 mi North 10.4 mph 17.3 mph N/A   Overcast
10:35 PM 53.6 °F 53.6 °F 100% 30.21 in 7.0 mi North 12.7 mph 20.7 mph N/A   Overcast
10:55 PM 53.6 °F 53.6 °F 100% 30.21 in 7.0 mi NNE 10.4 mph 19.6 mph N/A   Overcast
11:15 PM 53.6 °F 51.8 °F 94% 30.21 in 7.0 mi North 9.2 mph 16.1 mph N/A   Overcast
11:35 PM 53.6 °F 51.8 °F 94% 30.21 in 7.0 mi North 11.5 mph 17.3 mph N/A   Overcast